River Falls, WI (54022)

8:11 PM CST on January 16, 2017 (GMT -0600)
River Falls | | Change Station
Active Advisory: Winter Weather Advisory

Elev 906 ft 44.84 °N, 92.64 °W | Updated 3 seconds ago

Ice Pellets
Ice Pellets
30.7 °F
Feels Like 31 °F
N
1.0
Wind Variable Wind from NNE

Today
High -- | Low -- °F
--% Chance of Precip.
Yesterday
High -- | Low -- °F
Precip. -- in
Pressure 30.01 in
Visibility 7.0 miles
Clouds Mostly Cloudy 3300 ft
Overcast 4700 ft
Windchill 31 °F
Dew Point 29 °F
Humidity 96%
Rainfall 0.00 in
Snow Depth Not available.
7:43 AM 4:57 PM
Waning Gibbous, 76% visible
METAR K21D 170152Z AUTO 03004KT 7SM UP BKN033 OVC047 M01/M02 A3001 RMK AO2
Pressure 30.01 in
Visibility 7.0 miles
Clouds Mostly Cloudy 3300 ft
Overcast 4700 ft
Windchill 31 °F
Dew Point 29 °F
Humidity 96%
Rainfall 0.00 in
Snow Depth Not available.
7:43 AM 4:57 PM
Waning Gibbous, 76% visible
METAR K21D 170152Z AUTO 03004KT 7SM UP BKN033 OVC047 M01/M02 A3001 RMK AO2

Get Your Daily Forecast Email!

Thanks for signing up!

Be on the lookout for a verification email in your inbox.

You'll start receiving the daily forecast at 8 AM.

×

10-Day Weather Forecast

Almanac

Astronomy

Jan. 16, 2017 Rise Set
Actual Time
Civil Twilight
Nautical Twilight
Astronomical Twilight
Moon
Length of Visible Light
Length of Day
Tomorrow will be .
, % of the Moon is Illuminated

Today's Extremes

State Highs State Lows

Community

WunderPhotos

Upload Photos

1,962,540 photos uploaded!

WunderBlog® & News

Nearby

Air Quality

  Air Quality AQ Index Pollutant
Not available.

Snow Depth

Station Depth Elevation

Earthquake Activity

City Distance Mag. Time & Date
Minimum magnitude displayed is 2.5.

Coastal Water Temperatures

Place Temperature

Stations

Nearby Weather Stations

Station Location Temp. Windchill Dew Point Humidity Wind Precip. Elev Updated Type
                   

Watches & Warnings

Winter Weather Advisory
Issued: 5:21 PM CST Jan. 16, 2017 – National Weather Service

... Winter Weather Advisory remains in effect until 6 am CST
Tuesday...

* freezing rain and sleet into this evening with a changeover to
snow during the late evening. Light freezing drizzle possible
late in the night.

* Ice accumulations of a glaze are expected along with wet snow
accumulations of up to 1 inch.

* Look for reduced visibilities at times.

* Plan on slippery Road conditions.

Precautionary/preparedness actions...

A Winter Weather Advisory means that periods of snow... sleet or
freezing rain will cause travel difficulties. Be prepared for
slippery roads and limited visibilities... and use caution while
driving. The latest Road conditions for the state you are calling
from can be obtained by calling 5 1 1.